sensor_id;sensor_type;location;lat;lon;timestamp;pressure;altitude;pressure_sealevel;temperature;humidity
5753;BME280;2901;42.140;24.760;2023-02-01T00:01:39;99595.28;;;4.34;85.98
5753;BME280;2901;42.140;24.760;2023-02-01T00:04:04;99585.09;;;4.38;85.58
5753;BME280;2901;42.140;24.760;2023-02-01T00:06:30;99597.13;;;4.41;85.01
5753;BME280;2901;42.140;24.760;2023-02-01T00:08:55;99597.94;;;4.40;85.21
5753;BME280;2901;42.140;24.760;2023-02-01T00:11:22;99597.09;;;4.39;84.55
5753;BME280;2901;42.140;24.760;2023-02-01T00:13:48;99599.66;;;4.39;84.56
5753;BME280;2901;42.140;24.760;2023-02-01T00:16:15;99604.81;;;4.41;84.86
5753;BME280;2901;42.140;24.760;2023-02-01T00:18:47;99592.88;;;4.43;84.22
5753;BME280;2901;42.140;24.760;2023-02-01T00:21:15;99599.03;;;4.51;84.11
5753;BME280;2901;42.140;24.760;2023-02-01T00:23:41;99605.81;;;4.47;83.85
5753;BME280;2901;42.140;24.760;2023-02-01T00:26:14;99601.56;;;4.49;84.29
5753;BME280;2901;42.140;24.760;2023-02-01T00:28:40;99605.00;;;4.50;84.09
5753;BME280;2901;42.140;24.760;2023-02-01T00:31:05;99606.63;;;4.46;84.37
5753;BME280;2901;42.140;24.760;2023-02-01T00:33:31;99601.41;;;4.42;84.30
5753;BME280;2901;42.140;24.760;2023-02-01T00:35:58;99608.19;;;4.40;84.33
5753;BME280;2901;42.140;24.760;2023-02-01T00:38:25;99596.91;;;4.32;84.44
5753;BME280;2901;42.140;24.760;2023-02-01T00:40:50;99611.47;;;4.33;85.07
5753;BME280;2901;42.140;24.760;2023-02-01T00:43:16;99601.91;;;4.24;85.25
5753;BME280;2901;42.140;24.760;2023-02-01T00:45:41;99607.03;;;4.24;85.35
5753;BME280;2901;42.140;24.760;2023-02-01T00:48:06;99612.09;;;4.21;85.43
5753;BME280;2901;42.140;24.760;2023-02-01T00:50:32;99605.13;;;4.15;85.45
5753;BME280;2901;42.140;24.760;2023-02-01T00:52:57;99604.31;;;4.16;85.98
5753;BME280;2901;42.140;24.760;2023-02-01T00:55:22;99611.94;;;4.13;86.09
5753;BME280;2901;42.140;24.760;2023-02-01T00:57:48;99606.91;;;4.18;85.84
5753;BME280;2901;42.140;24.760;2023-02-01T01:00:14;99598.31;;;4.16;85.64
5753;BME280;2901;42.140;24.760;2023-02-01T01:02:39;99595.69;;;4.11;85.76
5753;BME280;2901;42.140;24.760;2023-02-01T01:05:05;99592.19;;;4.09;86.00
5753;BME280;2901;42.140;24.760;2023-02-01T01:07:30;99587.06;;;4.09;85.42
5753;BME280;2901;42.140;24.760;2023-02-01T01:09:55;99576.66;;;4.00;85.73
5753;BME280;2901;42.140;24.760;2023-02-01T01:12:21;99588.75;;;4.07;85.60
5753;BME280;2901;42.140;24.760;2023-02-01T01:14:46;99585.28;;;4.04;86.16
5753;BME280;2901;42.140;24.760;2023-02-01T01:17:11;99580.16;;;4.05;85.98
5753;BME280;2901;42.140;24.760;2023-02-01T01:19:37;99592.94;;;4.04;86.73
5753;BME280;2901;42.140;24.760;2023-02-01T01:22:02;99583.59;;;4.06;86.81
5753;BME280;2901;42.140;24.760;2023-02-01T01:24:28;99582.41;;;3.90;86.12
5753;BME280;2901;42.140;24.760;2023-02-01T01:26:53;99590.22;;;3.96;86.29
5753;BME280;2901;42.140;24.760;2023-02-01T01:29:18;99583.50;;;4.01;86.23
5753;BME280;2901;42.140;24.760;2023-02-01T01:31:44;99587.78;;;4.02;86.32
5753;BME280;2901;42.140;24.760;2023-02-01T01:34:09;99592.84;;;3.99;86.44
5753;BME280;2901;42.140;24.760;2023-02-01T01:36:34;99592.78;;;3.95;87.10
5753;BME280;2901;42.140;24.760;2023-02-01T01:39:00;99598.53;;;3.86;86.40
5753;BME280;2901;42.140;24.760;2023-02-01T01:41:29;99595.97;;;3.85;86.85
5753;BME280;2901;42.140;24.760;2023-02-01T01:44:06;99591.63;;;3.82;87.38
5753;BME280;2901;42.140;24.760;2023-02-01T01:46:35;99592.34;;;3.77;86.99
5753;BME280;2901;42.140;24.760;2023-02-01T01:51:28;99596.59;;;3.76;87.00
5753;BME280;2901;42.140;24.760;2023-02-01T01:54:00;99608.59;;;3.77;87.13
5753;BME280;2901;42.140;24.760;2023-02-01T01:56:27;99604.22;;;3.73;86.91
5753;BME280;2901;42.140;24.760;2023-02-01T01:58:54;99596.47;;;3.70;87.46
5753;BME280;2901;42.140;24.760;2023-02-01T02:01:20;99595.47;;;3.62;87.99
5753;BME280;2901;42.140;24.760;2023-02-01T02:03:45;99585.13;;;3.59;87.94
5753;BME280;2901;42.140;24.760;2023-02-01T02:06:42;99598.91;;;3.64;87.34
5753;BME280;2901;42.140;24.760;2023-02-01T02:09:06;99585.78;;;3.49;87.93
5753;BME280;2901;42.140;24.760;2023-02-01T02:11:32;99596.06;;;3.52;88.31
5753;BME280;2901;42.140;24.760;2023-02-01T02:13:58;99589.22;;;3.51;88.01
5753;BME280;2901;42.140;24.760;2023-02-01T02:16:40;99591.78;;;3.52;88.09
5753;BME280;2901;42.140;24.760;2023-02-01T02:35:42;99600.78;;;3.73;86.77
5753;BME280;2901;42.140;24.760;2023-02-01T02:38:26;99591.41;;;3.72;86.97
5753;BME280;2901;42.140;24.760;2023-02-01T02:41:07;99596.53;;;3.73;86.72
5753;BME280;2901;42.140;24.760;2023-02-01T02:43:44;99593.16;;;3.74;86.72
5753;BME280;2901;42.140;24.760;2023-02-01T02:46:37;99609.47;;;3.78;86.88
5753;BME280;2901;42.140;24.760;2023-02-01T02:49:28;99608.53;;;3.76;86.67
5753;BME280;2901;42.140;24.760;2023-02-01T02:52:18;99608.53;;;3.74;86.64
5753;BME280;2901;42.140;24.760;2023-02-01T02:55:04;99599.03;;;3.69;86.67
5753;BME280;2901;42.140;24.760;2023-02-01T02:57:35;99605.06;;;3.72;86.75
5753;BME280;2901;42.140;24.760;2023-02-01T03:00:23;99604.97;;;3.69;86.91
5753;BME280;2901;42.140;24.760;2023-02-01T03:03:08;99605.97;;;3.74;86.90
5753;BME280;2901;42.140;24.760;2023-02-01T03:05:52;99599.72;;;3.63;87.16
5753;BME280;2901;42.140;24.760;2023-02-01T03:08:26;99596.41;;;3.67;87.23
5753;BME280;2901;42.140;24.760;2023-02-01T03:11:07;99594.66;;;3.66;87.45
5753;BME280;2901;42.140;24.760;2023-02-01T03:16:08;99587.91;;;3.68;87.19
5753;BME280;2901;42.140;24.760;2023-02-01T03:21:02;99605.97;;;3.74;87.15
5753;BME280;2901;42.140;24.760;2023-02-01T03:23:33;99592.16;;;3.67;87.48
5753;BME280;2901;42.140;24.760;2023-02-01T03:26:01;99606.66;;;3.67;87.37
5753;BME280;2901;42.140;24.760;2023-02-01T03:28:28;99598.09;;;3.66;87.54
5753;BME280;2901;42.140;24.760;2023-02-01T03:30:55;99602.13;;;3.55;88.13
5753;BME280;2901;42.140;24.760;2023-02-01T03:33:23;99602.91;;;3.53;88.53
5753;BME280;2901;42.140;24.760;2023-02-01T03:46:59;99596.16;;;3.56;89.20
5753;BME280;2901;42.140;24.760;2023-02-01T03:49:30;99595.16;;;3.50;89.36
5753;BME280;2901;42.140;24.760;2023-02-01T03:51:59;99593.34;;;3.46;89.82
5753;BME280;2901;42.140;24.760;2023-02-01T03:54:29;99596.69;;;3.42;89.66
5753;BME280;2901;42.140;24.760;2023-02-01T03:56:57;99603.38;;;3.35;90.76
5753;BME280;2901;42.140;24.760;2023-02-01T03:59:25;99615.38;;;3.39;90.95
5753;BME280;2901;42.140;24.760;2023-02-01T04:01:50;99603.38;;;3.37;91.30
5753;BME280;2901;42.140;24.760;2023-02-01T04:04:16;99604.22;;;3.36;91.22
5753;BME280;2901;42.140;24.760;2023-02-01T04:06:49;99614.22;;;3.27;91.69
5753;BME280;2901;42.140;24.760;2023-02-01T04:09:15;99611.66;;;3.25;92.11
5753;BME280;2901;42.140;24.760;2023-02-01T04:11:40;99609.00;;;3.22;91.98
5753;BME280;2901;42.140;24.760;2023-02-01T04:14:06;99608.81;;;3.14;92.21
5753;BME280;2901;42.140;24.760;2023-02-01T04:16:32;99621.81;;;3.24;92.21
5753;BME280;2901;42.140;24.760;2023-02-01T04:18:57;99614.72;;;3.12;92.04
5753;BME280;2901;42.140;24.760;2023-02-01T04:21:24;99619.84;;;3.12;92.07
5753;BME280;2901;42.140;24.760;2023-02-01T04:23:50;99632.72;;;3.17;91.81
5753;BME280;2901;42.140;24.760;2023-02-01T04:26:16;99633.66;;;3.19;91.20
5753;BME280;2901;42.140;24.760;2023-02-01T04:28:41;99637.09;;;3.21;90.57
5753;BME280;2901;42.140;24.760;2023-02-01T04:31:06;99640.53;;;3.21;90.34
5753;BME280;2901;42.140;24.760;2023-02-01T04:33:32;99650.97;;;3.30;89.38
5753;BME280;2901;42.140;24.760;2023-02-01T04:35:57;99637.25;;;3.27;88.80
5753;BME280;2901;42.140;24.760;2023-02-01T04:38:23;99646.78;;;3.32;88.67
5753;BME280;2901;42.140;24.760;2023-02-01T04:40:48;99651.94;;;3.34;88.08
5753;BME280;2901;42.140;24.760;2023-02-01T04:43:14;99659.53;;;3.31;87.87
5753;BME280;2901;42.140;24.760;2023-02-01T04:45:40;99646.81;;;3.34;87.39
5753;BME280;2901;42.140;24.760;2023-02-01T04:48:05;99646.00;;;3.35;87.37
5753;BME280;2901;42.140;24.760;2023-02-01T04:50:30;99641.75;;;3.37;87.32
5753;BME280;2901;42.140;24.760;2023-02-01T04:52:56;99651.19;;;3.38;86.91
5753;BME280;2901;42.140;24.760;2023-02-01T04:55:21;99652.94;;;3.39;86.92
5753;BME280;2901;42.140;24.760;2023-02-01T04:57:47;99641.53;;;3.28;86.47
5753;BME280;2901;42.140;24.760;2023-02-01T05:00:12;99648.44;;;3.30;86.70
5753;BME280;2901;42.140;24.760;2023-02-01T05:02:38;99648.56;;;3.35;86.00
5753;BME280;2901;42.140;24.760;2023-02-01T05:05:04;99643.38;;;3.32;85.75
5753;BME280;2901;42.140;24.760;2023-02-01T05:07:30;99645.78;;;3.26;85.62
5753;BME280;2901;42.140;24.760;2023-02-01T05:09:55;99651.84;;;3.31;85.34
5753;BME280;2901;42.140;24.760;2023-02-01T05:12:20;99655.16;;;3.27;85.10
5753;BME280;2901;42.140;24.760;2023-02-01T05:15:05;99655.41;;;3.36;84.45
5753;BME280;2901;42.140;24.760;2023-02-01T05:17:30;99661.41;;;3.38;83.66
5753;BME280;2901;42.140;24.760;2023-02-01T05:19:56;99665.81;;;3.43;83.98
5753;BME280;2901;42.140;24.760;2023-02-01T05:22:21;99652.41;;;3.52;82.74
5753;BME280;2901;42.140;24.760;2023-02-01T05:24:46;99649.03;;;3.54;82.52
5753;BME280;2901;42.140;24.760;2023-02-01T05:27:12;99653.53;;;3.64;82.23
5753;BME280;2901;42.140;24.760;2023-02-01T05:29:38;99648.50;;;3.69;81.43
5753;BME280;2901;42.140;24.760;2023-02-01T05:32:03;99649.44;;;3.73;81.28
5753;BME280;2901;42.140;24.760;2023-02-01T05:34:28;99644.31;;;3.73;81.27
5753;BME280;2901;42.140;24.760;2023-02-01T05:36:54;99642.75;;;3.78;81.23
5753;BME280;2901;42.140;24.760;2023-02-01T05:39:19;99645.31;;;3.79;81.35
5753;BME280;2901;42.140;24.760;2023-02-01T05:41:45;99644.44;;;3.77;81.13
5753;BME280;2901;42.140;24.760;2023-02-01T05:44:11;99649.56;;;3.77;81.71
5753;BME280;2901;42.140;24.760;2023-02-01T05:46:36;99650.50;;;3.82;81.85
5753;BME280;2901;42.140;24.760;2023-02-01T05:49:04;99653.06;;;3.81;82.24
5753;BME280;2901;42.140;24.760;2023-02-01T05:51:29;99650.69;;;3.88;82.24
5753;BME280;2901;42.140;24.760;2023-02-01T05:53:55;99644.50;;;3.80;81.49
5753;BME280;2901;42.140;24.760;2023-02-01T05:56:20;99654.94;;;3.89;81.84
5753;BME280;2901;42.140;24.760;2023-02-01T05:58:46;99652.53;;;3.95;81.39
5753;BME280;2901;42.140;24.760;2023-02-01T06:01:11;99651.88;;;4.04;80.74
5753;BME280;2901;42.140;24.760;2023-02-01T06:03:37;99648.38;;;4.00;79.85
5753;BME280;2901;42.140;24.760;2023-02-01T06:06:02;99656.19;;;4.05;79.79
5753;BME280;2901;42.140;24.760;2023-02-01T06:08:29;99660.56;;;4.10;78.83
5753;BME280;2901;42.140;24.760;2023-02-01T06:11:03;99656.31;;;4.11;77.52
5753;BME280;2901;42.140;24.760;2023-02-01T06:13:29;99653.88;;;4.18;76.86
5753;BME280;2901;42.140;24.760;2023-02-01T06:15:54;99659.06;;;4.22;76.32
5753;BME280;2901;42.140;24.760;2023-02-01T06:18:21;99658.41;;;4.30;76.00
5753;BME280;2901;42.140;24.760;2023-02-01T06:20:55;99663.50;;;4.29;75.03
5753;BME280;2901;42.140;24.760;2023-02-01T06:23:20;99664.53;;;4.37;74.15
5753;BME280;2901;42.140;24.760;2023-02-01T06:25:57;99664.66;;;4.43;73.38
5753;BME280;2901;42.140;24.760;2023-02-01T06:28:24;99669.25;;;4.57;73.49
5753;BME280;2901;42.140;24.760;2023-02-01T06:30:50;99669.38;;;4.63;72.48
5753;BME280;2901;42.140;24.760;2023-02-01T06:33:15;99669.50;;;4.71;71.64
5753;BME280;2901;42.140;24.760;2023-02-01T06:35:41;99670.47;;;4.76;71.23
5753;BME280;2901;42.140;24.760;2023-02-01T06:38:09;99672.44;;;4.91;70.71
5753;BME280;2901;42.140;24.760;2023-02-01T06:40:34;99674.28;;;4.98;69.85
5753;BME280;2901;42.140;24.760;2023-02-01T06:43:00;99671.66;;;4.93;70.61
5753;BME280;2901;42.140;24.760;2023-02-01T06:45:26;99672.53;;;4.95;70.48
5753;BME280;2901;42.140;24.760;2023-02-01T06:47:51;99682.09;;;5.04;69.65
5753;BME280;2901;42.140;24.760;2023-02-01T06:50:16;99683.88;;;5.08;69.98
5753;BME280;2901;42.140;24.760;2023-02-01T06:52:42;99682.34;;;5.16;69.18
5753;BME280;2901;42.140;24.760;2023-02-01T06:55:07;99679.91;;;5.23;68.74
5753;BME280;2901;42.140;24.760;2023-02-01T06:57:33;99691.88;;;5.23;69.15
5753;BME280;2901;42.140;24.760;2023-02-01T06:59:59;99674.81;;;5.27;69.09
5753;BME280;2901;42.140;24.760;2023-02-01T07:02:25;99681.72;;;5.29;69.26
5753;BME280;2901;42.140;24.760;2023-02-01T07:04:50;99693.69;;;5.29;68.83
5753;BME280;2901;42.140;24.760;2023-02-01T07:07:15;99692.81;;;5.27;68.16
5753;BME280;2901;42.140;24.760;2023-02-01T07:09:42;99695.31;;;5.23;68.07
5753;BME280;2901;42.140;24.760;2023-02-01T07:12:07;99698.72;;;5.22;68.79
5753;BME280;2901;42.140;24.760;2023-02-01T07:14:32;99691.88;;;5.24;67.97
5753;BME280;2901;42.140;24.760;2023-02-01T07:16:58;99701.06;;;5.12;68.23
5753;BME280;2901;42.140;24.760;2023-02-01T07:19:23;99700.31;;;5.16;69.20
5753;BME280;2901;42.140;24.760;2023-02-01T07:21:48;99695.19;;;5.17;69.17
5753;BME280;2901;42.140;24.760;2023-02-01T07:24:14;99705.50;;;5.20;67.58
5753;BME280;2901;42.140;24.760;2023-02-01T07:26:39;99709.03;;;5.26;68.67
5753;BME280;2901;42.140;24.760;2023-02-01T07:29:05;99704.75;;;5.26;68.26
5753;BME280;2901;42.140;24.760;2023-02-01T07:31:30;99707.41;;;5.31;68.62
5753;BME280;2901;42.140;24.760;2023-02-01T07:33:56;99707.53;;;5.37;67.24
5753;BME280;2901;42.140;24.760;2023-02-01T07:36:22;99702.31;;;5.34;67.84
5753;BME280;2901;42.140;24.760;2023-02-01T07:38:48;99695.56;;;5.39;67.53
5753;BME280;2901;42.140;24.760;2023-02-01T07:41:14;99699.19;;;5.50;66.63
5753;BME280;2901;42.140;24.760;2023-02-01T07:43:39;99685.63;;;5.60;67.03
5753;BME280;2901;42.140;24.760;2023-02-01T07:46:05;99694.44;;;5.74;66.28
5753;BME280;2901;42.140;24.760;2023-02-01T07:48:31;99687.56;;;5.73;66.13
5753;BME280;2901;42.140;24.760;2023-02-01T07:50:59;99694.56;;;5.83;66.29
5753;BME280;2901;42.140;24.760;2023-02-01T07:53:26;99700.59;;;5.84;65.71
5753;BME280;2901;42.140;24.760;2023-02-01T07:55:51;99691.25;;;5.86;66.05
5753;BME280;2901;42.140;24.760;2023-02-01T07:58:17;99708.38;;;5.87;65.41
5753;BME280;2901;42.140;24.760;2023-02-01T08:00:42;99697.19;;;5.85;66.26
5753;BME280;2901;42.140;24.760;2023-02-01T08:03:27;99709.22;;;5.86;66.68
5753;BME280;2901;42.140;24.760;2023-02-01T08:05:55;99705.84;;;5.90;66.57
5753;BME280;2901;42.140;24.760;2023-02-01T08:08:21;99691.25;;;5.86;66.69
5753;BME280;2901;42.140;24.760;2023-02-01T08:10:47;99707.72;;;6.00;66.47
5753;BME280;2901;42.140;24.760;2023-02-01T08:13:12;99702.69;;;6.07;66.34
5753;BME280;2901;42.140;24.760;2023-02-01T08:15:38;99700.28;;;6.19;66.66
5753;BME280;2901;42.140;24.760;2023-02-01T08:18:03;99698.66;;;6.24;66.00
5753;BME280;2901;42.140;24.760;2023-02-01T08:20:29;99703.03;;;6.30;66.01
5753;BME280;2901;42.140;24.760;2023-02-01T08:22:55;99714.97;;;6.26;67.00
5753;BME280;2901;42.140;24.760;2023-02-01T08:25:21;99713.19;;;6.22;66.61
5753;BME280;2901;42.140;24.760;2023-02-01T08:27:47;99704.75;;;6.31;66.04
5753;BME280;2901;42.140;24.760;2023-02-01T08:30:12;99704.81;;;6.36;65.82
5753;BME280;2901;42.140;24.760;2023-02-01T08:32:38;99706.69;;;6.49;66.22
5753;BME280;2901;42.140;24.760;2023-02-01T08:35:04;99704.91;;;6.43;65.46
5753;BME280;2901;42.140;24.760;2023-02-01T08:37:30;99713.66;;;6.56;65.12
5753;BME280;2901;42.140;24.760;2023-02-01T08:39:56;99713.59;;;6.53;65.16
5753;BME280;2901;42.140;24.760;2023-02-01T08:42:21;99719.69;;;6.58;65.38
5753;BME280;2901;42.140;24.760;2023-02-01T08:45:06;99717.81;;;6.45;64.78
5753;BME280;2901;42.140;24.760;2023-02-01T08:47:33;99707.53;;;6.45;64.91
5753;BME280;2901;42.140;24.760;2023-02-01T08:49:59;99711.91;;;6.52;65.61
5753;BME280;2901;42.140;24.760;2023-02-01T08:52:24;99715.47;;;6.61;65.09
5753;BME280;2901;42.140;24.760;2023-02-01T08:54:49;99707.03;;;6.74;64.05
5753;BME280;2901;42.140;24.760;2023-02-01T08:57:15;99712.34;;;6.90;64.06
5753;BME280;2901;42.140;24.760;2023-02-01T08:59:40;99715.00;;;6.94;64.67
5753;BME280;2901;42.140;24.760;2023-02-01T09:02:06;99711.69;;;7.04;63.56
5753;BME280;2901;42.140;24.760;2023-02-01T09:04:33;99702.22;;;7.05;63.92
5753;BME280;2901;42.140;24.760;2023-02-01T09:06:58;99704.06;;;7.18;63.99
5753;BME280;2901;42.140;24.760;2023-02-01T09:09:24;99705.81;;;7.19;63.74
5753;BME280;2901;42.140;24.760;2023-02-01T09:11:49;99707.56;;;7.24;64.22
5753;BME280;2901;42.140;24.760;2023-02-01T09:14:16;99700.91;;;7.45;63.83
5753;BME280;2901;42.140;24.760;2023-02-01T09:16:41;99700.25;;;7.68;63.39
5753;BME280;2901;42.140;24.760;2023-02-01T09:19:07;99691.78;;;7.81;62.46
5753;BME280;2901;42.140;24.760;2023-02-01T09:21:32;99691.13;;;8.11;61.08
5753;BME280;2901;42.140;24.760;2023-02-01T09:23:58;99681.75;;;8.24;60.18
5753;BME280;2901;42.140;24.760;2023-02-01T09:26:23;99678.41;;;8.36;60.25
5753;BME280;2901;42.140;24.760;2023-02-01T09:28:50;99683.59;;;8.39;60.46
5753;BME280;2901;42.140;24.760;2023-02-01T09:31:15;99666.41;;;8.50;60.58
5753;BME280;2901;42.140;24.760;2023-02-01T09:33:41;99668.16;;;8.54;59.84
5753;BME280;2901;42.140;24.760;2023-02-01T09:36:06;99674.22;;;8.60;60.44
5753;BME280;2901;42.140;24.760;2023-02-01T09:38:32;99663.84;;;8.48;60.25
5753;BME280;2901;42.140;24.760;2023-02-01T09:40:58;99661.25;;;8.45;61.52
5753;BME280;2901;42.140;24.760;2023-02-01T09:43:46;99651.88;;;8.64;60.58
5753;BME280;2901;42.140;24.760;2023-02-01T09:46:23;99660.50;;;8.69;59.80
5753;BME280;2901;42.140;24.760;2023-02-01T09:48:53;99638.94;;;8.61;60.01
5753;BME280;2901;42.140;24.760;2023-02-01T09:51:23;99661.34;;;8.65;59.83
5753;BME280;2901;42.140;24.760;2023-02-01T09:59:43;99655.22;;;8.45;58.41
5753;BME280;2901;42.140;24.760;2023-02-01T10:02:30;99636.31;;;8.50;59.28
5753;BME280;2901;42.140;24.760;2023-02-01T10:04:59;99623.50;;;8.73;58.84
5753;BME280;2901;42.140;24.760;2023-02-01T10:15:55;99650.22;;;8.93;57.15
5753;BME280;2901;42.140;24.760;2023-02-01T10:22:01;99659.69;;;8.93;58.36
5753;BME280;2901;42.140;24.760;2023-02-01T10:29:42;99610.59;;;8.76;58.76
5753;BME280;2901;42.140;24.760;2023-02-01T10:32:17;99606.25;;;8.63;58.79
5753;BME280;2901;42.140;24.760;2023-02-01T10:34:45;99604.59;;;8.78;59.30
5753;BME280;2901;42.140;24.760;2023-02-01T10:37:20;99613.16;;;8.70;58.43
5753;BME280;2901;42.140;24.760;2023-02-01T10:39:49;99602.00;;;8.80;58.48
5753;BME280;2901;42.140;24.760;2023-02-01T10:42:18;99600.34;;;9.08;58.02
5753;BME280;2901;42.140;24.760;2023-02-01T10:44:45;99586.53;;;8.81;58.31
5753;BME280;2901;42.140;24.760;2023-02-01T10:47:14;99594.25;;;8.80;58.92
5753;BME280;2901;42.140;24.760;2023-02-01T10:50:03;99593.41;;;8.79;58.95
5753;BME280;2901;42.140;24.760;2023-02-01T10:52:50;99602.88;;;8.83;57.61
5753;BME280;2901;42.140;24.760;2023-02-01T10:55:37;99587.41;;;8.94;57.99
5753;BME280;2901;42.140;24.760;2023-02-01T10:58:06;99606.38;;;9.08;56.62
5753;BME280;2901;42.140;24.760;2023-02-01T11:00:43;99588.28;;;9.16;56.79
5753;BME280;2901;42.140;24.760;2023-02-01T11:03:36;99589.13;;;9.22;56.33
5753;BME280;2901;42.140;24.760;2023-02-01T11:06:29;99565.03;;;9.14;55.91
5753;BME280;2901;42.140;24.760;2023-02-01T11:09:31;99577.94;;;9.16;56.74
5753;BME280;2901;42.140;24.760;2023-02-01T11:11:58;99570.19;;;8.98;57.39
5753;BME280;2901;42.140;24.760;2023-02-01T11:16:57;99558.16;;;9.12;56.68
5753;BME280;2901;42.140;24.760;2023-02-01T11:19:22;99570.22;;;9.05;56.44
5753;BME280;2901;42.140;24.760;2023-02-01T11:21:52;99540.94;;;9.02;57.30
5753;BME280;2901;42.140;24.760;2023-02-01T11:24:31;99534.06;;;9.08;56.85
5753;BME280;2901;42.140;24.760;2023-02-01T11:27:00;99539.22;;;9.17;56.37
5753;BME280;2901;42.140;24.760;2023-02-01T11:29:44;99576.25;;;9.37;56.13
5753;BME280;2901;42.140;24.760;2023-02-01T11:32:12;99540.94;;;9.38;55.95
5753;BME280;2901;42.140;24.760;2023-02-01T11:34:45;99547.81;;;9.31;56.11
5753;BME280;2901;42.140;24.760;2023-02-01T11:37:23;99545.22;;;9.48;55.77
5753;BME280;2901;42.140;24.760;2023-02-01T11:40:02;99540.03;;;9.42;55.44
5753;BME280;2901;42.140;24.760;2023-02-01T11:42:29;99536.59;;;9.49;55.69
5753;BME280;2901;42.140;24.760;2023-02-01T11:45:30;99538.31;;;9.50;55.38
5753;BME280;2901;42.140;24.760;2023-02-01T11:47:57;99545.22;;;9.44;56.19
5753;BME280;2901;42.140;24.760;2023-02-01T11:50:44;99549.53;;;9.51;55.86
5753;BME280;2901;42.140;24.760;2023-02-01T12:26:01;99502.06;;;9.80;52.59
5753;BME280;2901;42.140;24.760;2023-02-01T12:39:40;99507.22;;;9.76;53.02
5753;BME280;2901;42.140;24.760;2023-02-01T12:42:18;99502.91;;;9.84;52.26
5753;BME280;2901;42.140;24.760;2023-02-01T12:47:59;99485.47;;;10.30;50.95
5753;BME280;2901;42.140;24.760;2023-02-01T12:50:39;99495.75;;;10.44;50.37
5753;BME280;2901;42.140;24.760;2023-02-01T12:53:12;99504.38;;;10.43;49.05
5753;BME280;2901;42.140;24.760;2023-02-01T12:55:49;99486.25;;;10.43;50.04
5753;BME280;2901;42.140;24.760;2023-02-01T12:58:40;99500.91;;;10.47;49.86
5753;BME280;2901;42.140;24.760;2023-02-01T13:06:52;99526.97;;;10.07;50.60
5753;BME280;2901;42.140;24.760;2023-02-01T13:12:04;99522.75;;;9.77;52.43
5753;BME280;2901;42.140;24.760;2023-02-01T13:17:19;99529.69;;;9.56;52.60
5753;BME280;2901;42.140;24.760;2023-02-01T13:22:40;99516.72;;;9.72;53.39
5753;BME280;2901;42.140;24.760;2023-02-01T13:25:15;99523.63;;;9.78;53.79
5753;BME280;2901;42.140;24.760;2023-02-01T13:27:42;99527.00;;;9.89;52.98
5753;BME280;2901;42.140;24.760;2023-02-01T13:30:18;99525.28;;;9.94;51.93
5753;BME280;2901;42.140;24.760;2023-02-01T13:33:05;99526.13;;;9.93;52.14
5753;BME280;2901;42.140;24.760;2023-02-01T13:38:44;99526.97;;;10.07;51.03
5753;BME280;2901;42.140;24.760;2023-02-01T13:41:22;99533.84;;;10.10;51.22
5753;BME280;2901;42.140;24.760;2023-02-01T13:43:54;99531.28;;;10.04;50.97
5753;BME280;2901;42.140;24.760;2023-02-01T13:46:21;99538.22;;;9.94;50.81
5753;BME280;2901;42.140;24.760;2023-02-01T13:48:53;99521.84;;;9.86;50.70
5753;BME280;2901;42.140;24.760;2023-02-01T13:51:35;99539.09;;;9.82;50.81
5753;BME280;2901;42.140;24.760;2023-02-01T13:54:01;99533.09;;;9.77;51.14
5753;BME280;2901;42.140;24.760;2023-02-01T13:56:41;99526.19;;;9.75;50.97
5753;BME280;2901;42.140;24.760;2023-02-01T14:02:44;99525.28;;;9.97;50.84
5753;BME280;2901;42.140;24.760;2023-02-01T14:21:21;99525.25;;;9.99;49.00
5753;BME280;2901;42.140;24.760;2023-02-01T14:23:56;99543.38;;;9.94;48.59
5753;BME280;2901;42.140;24.760;2023-02-01T14:36:59;99519.25;;;9.94;49.33
5753;BME280;2901;42.140;24.760;2023-02-01T14:39:30;99531.31;;;9.96;50.19
5753;BME280;2901;42.140;24.760;2023-02-01T14:42:03;99526.97;;;9.95;49.25
5753;BME280;2901;42.140;24.760;2023-02-01T14:44:31;99526.19;;;9.84;50.16
5753;BME280;2901;42.140;24.760;2023-02-01T14:47:09;99527.91;;;9.77;50.80
5753;BME280;2901;42.140;24.760;2023-02-01T14:49:52;99529.59;;;9.81;50.95
5753;BME280;2901;42.140;24.760;2023-02-01T14:52:20;99533.94;;;9.84;51.09
5753;BME280;2901;42.140;24.760;2023-02-01T14:54:53;99547.72;;;9.75;50.90
5753;BME280;2901;42.140;24.760;2023-02-01T14:57:20;99530.53;;;9.67;51.93
5753;BME280;2901;42.140;24.760;2023-02-01T14:59:49;99525.41;;;9.55;50.98
5753;BME280;2901;42.140;24.760;2023-02-01T15:02:25;99534.88;;;9.39;51.66
5753;BME280;2901;42.140;24.760;2023-02-01T15:04:55;99538.31;;;9.39;52.23
5753;BME280;2901;42.140;24.760;2023-02-01T15:07:21;99538.31;;;9.39;52.23
5753;BME280;2901;42.140;24.760;2023-02-01T15:09:48;99536.59;;;9.43;52.73
5753;BME280;2901;42.140;24.760;2023-02-01T15:12:38;99539.19;;;9.34;52.17
5753;BME280;2901;42.140;24.760;2023-02-01T15:17:39;99540.91;;;9.33;52.65
5753;BME280;2901;42.140;24.760;2023-02-01T15:22:35;99540.94;;;9.18;53.45
5753;BME280;2901;42.140;24.760;2023-02-01T15:25:01;99540.09;;;9.15;53.69
5753;BME280;2901;42.140;24.760;2023-02-01T15:27:28;99535.78;;;9.15;53.96
5753;BME280;2901;42.140;24.760;2023-02-01T15:29:53;99533.16;;;9.09;53.95
5753;BME280;2901;42.140;24.760;2023-02-01T15:32:37;99533.19;;;9.05;53.59
5753;BME280;2901;42.140;24.760;2023-02-01T15:35:36;99528.00;;;8.97;54.21
5753;BME280;2901;42.140;24.760;2023-02-01T15:38:44;99541.78;;;8.95;53.80
5753;BME280;2901;42.140;24.760;2023-02-01T15:44:03;99538.34;;;8.85;53.12
5753;BME280;2901;42.140;24.760;2023-02-01T15:46:49;99542.63;;;8.83;52.59
5753;BME280;2901;42.140;24.760;2023-02-01T15:49:28;99546.94;;;8.75;53.82
5753;BME280;2901;42.140;24.760;2023-02-01T15:51:56;99546.91;;;8.73;53.35
5753;BME280;2901;42.140;24.760;2023-02-01T15:54:32;99534.88;;;8.71;53.40
5753;BME280;2901;42.140;24.760;2023-02-01T15:57:02;99537.44;;;8.68;53.09
5753;BME280;2901;42.140;24.760;2023-02-01T15:59:41;99542.63;;;8.68;53.20
5753;BME280;2901;42.140;24.760;2023-02-01T16:02:34;99535.72;;;8.65;53.65
5753;BME280;2901;42.140;24.760;2023-02-01T16:05:02;99530.56;;;8.59;53.59
5753;BME280;2901;42.140;24.760;2023-02-01T16:07:30;99545.19;;;8.62;54.11
5753;BME280;2901;42.140;24.760;2023-02-01T16:09:59;99545.16;;;8.57;54.16
5753;BME280;2901;42.140;24.760;2023-02-01T16:15:03;99539.13;;;8.46;53.72
5753;BME280;2901;42.140;24.760;2023-02-01T16:17:29;99541.69;;;8.43;54.70
5753;BME280;2901;42.140;24.760;2023-02-01T16:19:55;99548.59;;;8.40;54.92
5753;BME280;2901;42.140;24.760;2023-02-01T16:22:20;99544.28;;;8.39;54.96